createdAt,value
2019-01-21T00:00:07.730Z,0.50
2019-01-21T00:01:24.928Z,0.50
2019-01-21T00:02:29.039Z,0.50
2019-01-21T00:03:33.163Z,0.60
2019-01-21T00:04:37.303Z,0.60
2019-01-21T00:05:41.399Z,0.60
2019-01-21T00:06:45.460Z,0.60
2019-01-21T00:07:49.533Z,0.60
2019-01-21T00:08:53.627Z,0.60
2019-01-21T00:09:57.688Z,0.60
2019-01-21T00:11:01.819Z,0.60
2019-01-21T00:12:05.889Z,0.60
2019-01-21T00:13:09.975Z,0.70
2019-01-21T00:14:14.147Z,0.70
2019-01-21T00:15:18.220Z,0.60
2019-01-21T00:16:22.291Z,0.60
2019-01-21T00:17:26.355Z,0.60
2019-01-21T00:18:30.454Z,0.60
2019-01-21T00:19:34.536Z,0.60
2019-01-21T00:20:38.603Z,0.60
2019-01-21T00:21:42.664Z,0.60
2019-01-21T00:22:46.731Z,0.60
2019-01-21T00:23:50.811Z,0.60
2019-01-21T00:24:54.887Z,0.50
2019-01-21T00:25:58.962Z,0.50
2019-01-21T00:27:03.018Z,0.50
2019-01-21T00:28:07.126Z,0.50
2019-01-21T00:29:11.347Z,0.50
2019-01-21T00:30:15.527Z,0.50
2019-01-21T00:31:19.585Z,0.50
2019-01-21T00:32:23.626Z,0.50
2019-01-21T00:33:27.699Z,0.50
2019-01-21T00:34:31.762Z,0.50
2019-01-21T00:35:35.842Z,0.50
2019-01-21T00:36:39.911Z,0.50
2019-01-21T00:37:44.043Z,0.50
2019-01-21T00:38:48.131Z,0.60
2019-01-21T00:39:52.191Z,0.60
2019-01-21T00:40:56.279Z,0.50
2019-01-21T00:42:00.340Z,0.60
2019-01-21T00:43:04.407Z,0.60
2019-01-21T00:44:08.638Z,0.60
2019-01-21T00:45:12.870Z,0.60
2019-01-21T00:46:16.955Z,0.60
2019-01-21T00:47:21.008Z,0.60
2019-01-21T00:48:25.116Z,0.60
2019-01-21T00:49:29.255Z,0.60
2019-01-21T00:50:33.326Z,0.60
2019-01-21T00:51:37.442Z,0.60
2019-01-21T00:52:41.511Z,0.60
2019-01-21T00:53:45.573Z,0.60
2019-01-21T00:54:51.013Z,0.60
2019-01-21T00:55:55.275Z,0.50
2019-01-21T00:56:59.372Z,0.50
2019-01-21T00:58:03.435Z,0.50
2019-01-21T00:59:07.581Z,0.50
2019-01-21T01:00:15.428Z,0.50
2019-01-21T01:01:19.499Z,0.50
2019-01-21T01:02:23.595Z,0.50
2019-01-21T01:03:27.667Z,0.60
2019-01-21T01:04:31.738Z,0.60
2019-01-21T01:05:35.815Z,0.50
2019-01-21T01:06:39.901Z,0.60
2019-01-21T01:07:44.047Z,0.60
2019-01-21T01:08:48.116Z,0.60
2019-01-21T01:09:52.177Z,0.60
2019-01-21T01:10:56.239Z,0.70
2019-01-21T01:12:00.293Z,0.70
2019-01-21T01:13:04.413Z,0.70
2019-01-21T01:14:08.598Z,0.70
2019-01-21T01:15:12.943Z,0.60
2019-01-21T01:16:17.015Z,0.70
2019-01-21T01:17:21.088Z,0.60
2019-01-21T01:18:25.212Z,0.60
2019-01-21T01:19:29.285Z,0.60
2019-01-21T01:20:33.370Z,0.60
2019-01-21T01:21:37.436Z,0.60
2019-01-21T01:22:41.511Z,0.60
2019-01-21T01:23:45.601Z,0.60
2019-01-21T01:24:49.710Z,0.60
2019-01-21T01:25:53.772Z,0.60
2019-01-21T01:26:57.827Z,0.50
2019-01-21T01:28:01.901Z,0.50
2019-01-21T01:29:06.018Z,0.50
2019-01-21T01:30:11.875Z,0.50
2019-01-21T01:31:15.943Z,0.40
2019-01-21T01:32:20.002Z,0.40
2019-01-21T01:33:24.067Z,0.40
2019-01-21T01:34:28.159Z,0.40
2019-01-21T01:35:32.213Z,0.50
2019-01-21T01:36:36.300Z,0.50
2019-01-21T01:37:40.767Z,0.50
2019-01-21T01:38:44.851Z,0.50
2019-01-21T01:39:48.952Z,0.50
2019-01-21T01:40:53.017Z,0.50
2019-01-21T01:41:57.104Z,0.40
2019-01-21T01:43:01.530Z,0.40
2019-01-21T01:44:05.594Z,0.40
2019-01-21T01:45:11.115Z,0.40
2019-01-21T01:46:15.218Z,0.40
2019-01-21T01:47:19.291Z,0.40
2019-01-21T01:48:23.375Z,0.40
2019-01-21T01:49:27.436Z,0.40
2019-01-21T01:50:31.690Z,0.40
2019-01-21T01:51:35.759Z,0.40
2019-01-21T01:52:39.825Z,0.40
2019-01-21T01:53:43.973Z,0.30
2019-01-21T01:54:48.110Z,0.40
2019-01-21T01:55:52.276Z,0.40
2019-01-21T01:56:56.463Z,0.40
2019-01-21T01:58:02.464Z,0.40
2019-01-21T01:59:06.559Z,0.40
2019-01-21T02:00:12.664Z,0.40
2019-01-21T02:01:16.743Z,0.40
2019-01-21T02:02:20.996Z,0.40
2019-01-21T02:03:25.503Z,0.40
2019-01-21T02:04:29.659Z,0.40
2019-01-21T02:05:33.715Z,0.40
2019-01-21T02:06:37.826Z,0.40
2019-01-21T02:07:41.971Z,0.40
2019-01-21T02:08:46.026Z,0.30
2019-01-21T02:09:50.125Z,0.30
2019-01-21T02:10:54.266Z,0.30
2019-01-21T02:11:58.447Z,0.30
2019-01-21T02:13:02.514Z,0.30
2019-01-21T02:14:06.627Z,0.30
2019-01-21T02:15:11.290Z,0.30
2019-01-21T02:16:15.415Z,0.40
2019-01-21T02:17:19.489Z,0.40
2019-01-21T02:18:23.568Z,0.30
2019-01-21T02:19:29.535Z,0.30
2019-01-21T02:20:33.595Z,0.30
2019-01-21T02:21:37.896Z,0.40
2019-01-21T02:22:44.322Z,0.30
2019-01-21T02:23:51.572Z,0.30
2019-01-21T02:24:56.591Z,0.30
2019-01-21T02:26:02.035Z,0.40
2019-01-21T02:27:32.188Z,0.30
2019-01-21T02:29:11.030Z,0.40
2019-01-21T02:30:54.577Z,0.40
2019-01-21T02:32:41.935Z,0.30
2019-01-21T02:34:28.519Z,0.30
2019-01-21T02:36:08.738Z,0.40
2019-01-21T02:37:47.340Z,0.40
2019-01-21T02:39:18.132Z,0.40
2019-01-21T02:40:37.816Z,0.40
2019-01-21T02:42:32.308Z,0.40
2019-01-21T02:44:10.249Z,0.40
2019-01-21T02:45:46.936Z,0.40
2019-01-21T02:47:15.129Z,0.30
2019-01-21T02:48:30.054Z,0.40
2019-01-21T02:50:29.535Z,0.30
2019-01-21T02:52:12.398Z,0.30
2019-01-21T02:53:58.111Z,0.30
2019-01-21T02:55:11.621Z,0.20
2019-01-21T02:56:47.532Z,0.20
2019-01-21T02:58:43.999Z,0.20
2019-01-21T03:00:02.128Z,0.20
2019-01-21T03:01:30.902Z,0.10
2019-01-21T03:03:00.995Z,0.10
2019-01-21T03:04:47.343Z,0.10
2019-01-21T03:06:34.682Z,0.10
2019-01-21T03:08:15.568Z,0.10
2019-01-21T03:10:00.834Z,0.10
2019-01-21T03:11:30.490Z,0.10
2019-01-21T03:12:58.319Z,0.10
2019-01-21T03:14:44.882Z,0.10
2019-01-21T03:16:24.591Z,0.00
2019-01-21T03:18:34.931Z,0.00
2019-01-21T03:20:20.883Z,0.00
2019-01-21T03:22:19.320Z,0.00
2019-01-21T03:24:00.543Z,0.00
2019-01-21T03:25:43.728Z,0.00
2019-01-21T03:27:14.315Z,0.10
2019-01-21T03:28:45.261Z,0.10
2019-01-21T03:30:42.510Z,0.10
2019-01-21T03:32:28.060Z,0.10
2019-01-21T03:34:07.874Z,0.00
2019-01-21T03:35:45.362Z,0.00
2019-01-21T03:37:22.305Z,0.00
2019-01-21T03:39:16.622Z,0.00
2019-01-21T03:41:01.712Z,-0.10
2019-01-21T03:42:43.884Z,-0.10
2019-01-21T03:44:36.461Z,-0.10
2019-01-21T03:46:13.828Z,-0.10
2019-01-21T03:47:28.383Z,-0.20
2019-01-21T03:48:47.952Z,-0.20
2019-01-21T03:50:48.323Z,-0.20
2019-01-21T03:52:33.122Z,-0.20
2019-01-21T03:54:09.427Z,-0.30
2019-01-21T03:55:15.822Z,-0.20
2019-01-21T03:56:54.381Z,-0.20
2019-01-21T03:58:23.266Z,-0.20
2019-01-21T04:00:13.963Z,-0.20
2019-01-21T04:01:49.074Z,-0.10
2019-01-21T04:03:31.631Z,-0.10
2019-01-21T04:05:12.391Z,-0.10
2019-01-21T04:06:33.570Z,-0.10
2019-01-21T04:08:02.784Z,-0.10
2019-01-21T04:10:06.043Z,-0.10
2019-01-21T04:11:54.152Z,-0.10
2019-01-21T04:13:32.356Z,-0.10
2019-01-21T04:15:20.350Z,-0.10
2019-01-21T04:16:54.175Z,-0.10
2019-01-21T04:18:35.220Z,-0.10
2019-01-21T04:20:06.157Z,-0.10
2019-01-21T04:21:54.677Z,-0.10
2019-01-21T04:23:40.408Z,-0.10
2019-01-21T04:25:24.344Z,-0.10
2019-01-21T04:26:51.244Z,-0.10
2019-01-21T04:28:24.847Z,-0.10
2019-01-21T04:30:18.108Z,-0.10
2019-01-21T04:31:43.688Z,-0.10
2019-01-21T04:33:05.614Z,-0.10
2019-01-21T04:34:41.839Z,-0.10
2019-01-21T04:36:09.046Z,-0.10
2019-01-21T04:38:18.404Z,-0.10
2019-01-21T04:39:55.376Z,-0.10
2019-01-21T04:41:21.335Z,-0.10
2019-01-21T04:43:24.532Z,-0.10
2019-01-21T04:44:53.968Z,-0.10
2019-01-21T04:46:45.312Z,-0.10
2019-01-21T04:48:12.532Z,-0.10
2019-01-21T04:49:39.745Z,-0.10
2019-01-21T04:51:20.858Z,-0.10
2019-01-21T04:53:15.806Z,-0.10
2019-01-21T04:54:53.843Z,-0.10
2019-01-21T04:56:26.636Z,-0.10
2019-01-21T04:58:10.754Z,-0.10
2019-01-21T04:59:41.898Z,-0.10
2019-01-21T05:01:39.495Z,-0.10
2019-01-21T05:03:12.777Z,-0.10
2019-01-21T05:04:42.362Z,-0.10
2019-01-21T05:06:30.597Z,-0.10
2019-01-21T05:08:16.947Z,-0.10
2019-01-21T05:09:49.696Z,-0.10
2019-01-21T05:11:23.494Z,-0.10
2019-01-21T05:13:24.600Z,-0.10
2019-01-21T05:15:15.119Z,-0.10
2019-01-21T05:17:18.099Z,-0.10
2019-01-21T05:18:57.292Z,-0.20
2019-01-21T05:20:48.146Z,-0.20
2019-01-21T05:22:47.156Z,-0.20
2019-01-21T05:24:28.034Z,-0.20
2019-01-21T05:26:24.351Z,-0.20
2019-01-21T05:28:21.582Z,-0.20
2019-01-21T05:29:54.396Z,-0.20
2019-01-21T05:31:50.047Z,-0.20
2019-01-21T05:33:33.232Z,-0.20
2019-01-21T05:35:26.006Z,-0.20
2019-01-21T05:37:00.499Z,-0.30
2019-01-21T05:38:26.608Z,-0.30
2019-01-21T05:40:06.102Z,-0.30
2019-01-21T05:41:48.623Z,-0.30
2019-01-21T05:43:26.127Z,-0.30
2019-01-21T05:45:03.575Z,-0.30
2019-01-21T05:46:40.015Z,-0.30
2019-01-21T05:48:33.323Z,-0.30
2019-01-21T05:50:30.528Z,-0.30
2019-01-21T05:52:10.598Z,-0.30
2019-01-21T05:53:44.261Z,-0.30
2019-01-21T05:55:36.900Z,-0.30
2019-01-21T05:56:54.156Z,-0.30
2019-01-21T05:58:18.132Z,-0.30
2019-01-21T05:59:51.905Z,-0.30
2019-01-21T06:01:37.120Z,-0.30
2019-01-21T06:03:25.598Z,-0.30
2019-01-21T06:04:57.565Z,-0.30
2019-01-21T06:06:33.855Z,-0.30
2019-01-21T06:08:28.087Z,-0.30
2019-01-21T06:09:41.556Z,-0.30
2019-01-21T06:10:59.842Z,-0.30
2019-01-21T06:12:35.663Z,-0.30
2019-01-21T06:14:09.502Z,-0.30
2019-01-21T06:16:02.319Z,-0.40
2019-01-21T06:17:27.750Z,-0.40
2019-01-21T06:19:09.323Z,-0.40
2019-01-21T06:20:26.279Z,-0.50
2019-01-21T06:22:02.076Z,-0.50
2019-01-21T06:23:56.012Z,-0.50
2019-01-21T06:25:50.984Z,-0.60
2019-01-21T06:27:38.496Z,-0.50
2019-01-21T06:29:18.427Z,-0.50
2019-01-21T06:30:41.235Z,-0.50
2019-01-21T06:32:15.863Z,-0.50
2019-01-21T06:33:52.447Z,-0.50
2019-01-21T06:35:20.566Z,-0.40
2019-01-21T06:36:44.358Z,-0.40
2019-01-21T06:38:23.939Z,-0.40
2019-01-21T06:40:11.371Z,-0.40
2019-01-21T06:41:45.399Z,-0.40
2019-01-21T06:43:00.395Z,-0.40
2019-01-21T06:44:49.272Z,-0.30
2019-01-21T06:46:31.746Z,-0.30
2019-01-21T06:48:06.818Z,-0.30
2019-01-21T06:49:46.044Z,-0.40
2019-01-21T06:51:39.428Z,-0.40
2019-01-21T06:53:24.523Z,-0.40
2019-01-21T06:55:10.231Z,-0.50
2019-01-21T06:56:57.207Z,-0.50
2019-01-21T06:58:50.264Z,-0.50
2019-01-21T07:00:34.355Z,-0.50
2019-01-21T07:02:11.247Z,-0.50
2019-01-21T07:04:17.407Z,-0.50
2019-01-21T07:05:58.531Z,-0.50
2019-01-21T07:07:56.563Z,-0.50
2019-01-21T07:09:23.464Z,-0.50
2019-01-21T07:10:49.143Z,-0.50
2019-01-21T07:12:02.895Z,-0.50
2019-01-21T07:13:43.561Z,-0.50
2019-01-21T07:15:21.546Z,-0.50
2019-01-21T07:17:09.969Z,-0.50
2019-01-21T07:18:59.943Z,-0.50
2019-01-21T07:20:45.566Z,-0.50
2019-01-21T07:22:10.903Z,-0.50
2019-01-21T07:23:45.455Z,-0.50
2019-01-21T07:25:24.445Z,-0.50
2019-01-21T07:27:27.780Z,-0.50
2019-01-21T07:29:16.125Z,-0.50
2019-01-21T07:30:44.496Z,-0.50
2019-01-21T07:32:30.378Z,-0.50
2019-01-21T07:34:19.231Z,-0.60
2019-01-21T07:36:28.738Z,-0.60
2019-01-21T07:38:06.516Z,-0.50
2019-01-21T07:39:43.291Z,-0.50
2019-01-21T07:41:24.176Z,-0.60
2019-01-21T07:43:13.031Z,-0.50
2019-01-21T07:44:58.443Z,-0.50
2019-01-21T07:46:58.659Z,-0.50
2019-01-21T07:48:14.762Z,-0.50
2019-01-21T07:50:11.864Z,-0.50
2019-01-21T07:51:55.806Z,-0.50
2019-01-21T07:53:28.594Z,-0.50
2019-01-21T07:54:59.655Z,-0.40
2019-01-21T07:56:37.905Z,-0.40
2019-01-21T07:58:08.663Z,-0.40
2019-01-21T08:00:00.103Z,-0.30
2019-01-21T08:01:33.696Z,-0.40
2019-01-21T08:03:23.487Z,-0.40
2019-01-21T08:05:17.779Z,-0.40
2019-01-21T08:06:47.519Z,-0.40
2019-01-21T08:08:08.967Z,-0.40
2019-01-21T08:09:43.459Z,-0.40
2019-01-21T08:11:10.410Z,-0.40
2019-01-21T08:12:59.950Z,-0.40
2019-01-21T08:14:17.114Z,-0.40
2019-01-21T08:16:09.973Z,-0.40
2019-01-21T08:18:03.986Z,-0.40
2019-01-21T08:19:53.451Z,-0.30
2019-01-21T08:21:38.552Z,-0.30
2019-01-21T08:23:30.558Z,-0.30
2019-01-21T08:25:30.955Z,-0.30
2019-01-21T08:26:56.575Z,-0.20
2019-01-21T08:28:38.963Z,-0.30
2019-01-21T08:30:11.319Z,-0.30
2019-01-21T08:31:27.298Z,-0.20
2019-01-21T08:32:50.699Z,-0.20
2019-01-21T08:34:31.520Z,-0.20
2019-01-21T08:36:07.807Z,-0.20
2019-01-21T08:37:40.903Z,-0.20
2019-01-21T08:39:37.935Z,-0.20
2019-01-21T08:41:17.775Z,-0.20
2019-01-21T08:42:47.222Z,-0.10
2019-01-21T08:44:41.797Z,-0.10
2019-01-21T08:46:24.295Z,-0.10
2019-01-21T08:48:00.166Z,-0.10
2019-01-21T08:50:15.672Z,-0.10
2019-01-21T08:52:14.147Z,-0.10
2019-01-21T08:54:07.249Z,-0.10
2019-01-21T08:55:51.163Z,-0.10
2019-01-21T08:57:36.510Z,-0.10
2019-01-21T08:59:24.575Z,-0.10
2019-01-21T09:01:06.679Z,-0.10
2019-01-21T09:02:40.548Z,-0.10
2019-01-21T09:04:37.628Z,-0.10
2019-01-21T09:06:10.099Z,0.00
2019-01-21T09:07:43.592Z,0.00
2019-01-21T09:09:35.172Z,0.00
2019-01-21T09:11:19.021Z,0.00
2019-01-21T09:12:51.203Z,0.10
2019-01-21T09:14:30.356Z,0.10
2019-01-21T09:16:24.443Z,0.10
2019-01-21T09:17:56.896Z,0.10
2019-01-21T09:19:25.963Z,0.10
2019-01-21T09:21:25.159Z,0.10
2019-01-21T09:23:00.982Z,0.20
2019-01-21T09:24:49.986Z,0.20
2019-01-21T09:26:31.003Z,0.20
2019-01-21T09:28:12.459Z,0.20
2019-01-21T09:29:47.487Z,0.20
2019-01-21T09:31:50.625Z,0.20
2019-01-21T09:33:09.482Z,0.20
2019-01-21T09:34:39.958Z,0.30
2019-01-21T09:36:33.354Z,0.30
2019-01-21T09:37:50.327Z,0.30
2019-01-21T09:39:31.586Z,0.40
2019-01-21T09:41:00.314Z,0.40
2019-01-21T09:42:17.264Z,0.40
2019-01-21T09:44:14.354Z,0.40
2019-01-21T09:46:00.735Z,0.40
2019-01-21T09:47:03.360Z,0.50
2019-01-21T09:48:06.010Z,0.50
2019-01-21T09:49:08.699Z,0.50
2019-01-21T09:50:12.841Z,0.50
2019-01-21T09:51:16.920Z,0.50
2019-01-21T09:52:21.357Z,0.50
2019-01-21T09:53:25.514Z,0.50
2019-01-21T09:54:29.611Z,0.50
2019-01-21T09:55:34.053Z,0.50
2019-01-21T09:56:38.955Z,0.50
2019-01-21T09:57:43.014Z,0.50
2019-01-21T09:58:47.124Z,0.50
2019-01-21T10:00:01.624Z,0.60
2019-01-21T10:01:05.679Z,0.60
2019-01-21T10:02:10.369Z,0.60
2019-01-21T10:03:14.487Z,0.60
2019-01-21T10:04:23.170Z,0.60
2019-01-21T10:05:28.287Z,0.70
2019-01-21T10:06:41.542Z,0.70
2019-01-21T10:08:35.638Z,0.70
2019-01-21T10:10:02.208Z,0.70
2019-01-21T10:11:46.078Z,0.70
2019-01-21T10:13:46.232Z,0.80
2019-01-21T10:15:14.519Z,0.80
2019-01-21T10:16:45.203Z,0.80
2019-01-21T10:18:25.047Z,0.80
2019-01-21T10:19:58.905Z,0.80
2019-01-21T10:21:39.222Z,0.90
2019-01-21T10:23:30.275Z,0.90
2019-01-21T10:25:36.473Z,0.90
2019-01-21T10:27:28.175Z,0.90
2019-01-21T10:29:00.638Z,0.90
2019-01-21T10:30:37.550Z,0.90
2019-01-21T10:32:08.372Z,0.90
2019-01-21T10:34:00.131Z,0.90
2019-01-21T10:35:21.395Z,0.90
2019-01-21T10:37:06.271Z,0.90
2019-01-21T10:38:50.244Z,0.90
2019-01-21T10:40:47.427Z,0.90
2019-01-21T10:42:44.295Z,0.90
2019-01-21T10:44:32.312Z,0.90
2019-01-21T10:46:03.402Z,1.00
2019-01-21T10:47:48.873Z,1.00
2019-01-21T10:49:31.612Z,1.00
2019-01-21T10:51:15.551Z,1.00
2019-01-21T10:52:54.579Z,1.00
2019-01-21T10:54:22.939Z,1.00
2019-01-21T10:56:00.006Z,1.10
2019-01-21T10:57:35.067Z,1.10
2019-01-21T10:58:48.203Z,1.10
2019-01-21T11:00:15.173Z,1.20
2019-01-21T11:02:00.360Z,1.20
2019-01-21T11:03:17.542Z,1.20
2019-01-21T11:04:51.841Z,1.20
2019-01-21T11:06:44.280Z,1.20
2019-01-21T11:08:20.919Z,1.30
2019-01-21T11:10:06.083Z,1.30
2019-01-21T11:11:47.012Z,1.30
2019-01-21T11:13:34.747Z,1.30
2019-01-21T11:15:08.830Z,1.40
2019-01-21T11:16:38.988Z,1.30
2019-01-21T11:18:33.596Z,1.40
2019-01-21T11:20:13.115Z,1.30
2019-01-21T11:21:32.015Z,1.40
2019-01-21T11:23:25.206Z,1.40
2019-01-21T11:25:09.567Z,1.40
2019-01-21T11:26:49.112Z,1.40
2019-01-21T11:28:27.186Z,1.40
2019-01-21T11:29:57.179Z,1.40
2019-01-21T11:31:32.855Z,1.40
2019-01-21T11:33:17.863Z,1.40
2019-01-21T11:34:36.659Z,1.40
2019-01-21T11:36:25.330Z,1.50
2019-01-21T11:38:04.297Z,1.50
2019-01-21T11:39:37.103Z,1.50
2019-01-21T11:41:09.926Z,1.50
2019-01-21T11:42:52.099Z,1.50
2019-01-21T11:44:09.984Z,1.60
2019-01-21T11:46:07.313Z,1.60
2019-01-21T11:48:10.383Z,1.60
2019-01-21T11:49:49.843Z,1.60
2019-01-21T11:51:48.558Z,1.60
2019-01-21T11:53:15.522Z,1.70
2019-01-21T11:54:51.550Z,1.70
2019-01-21T11:56:30.323Z,1.70
2019-01-21T11:58:15.044Z,1.60
2019-01-21T11:59:56.013Z,1.70
2019-01-21T12:01:24.389Z,1.70
2019-01-21T12:03:11.330Z,1.70
2019-01-21T12:04:46.008Z,1.70
2019-01-21T12:06:03.045Z,1.80
2019-01-21T12:07:52.636Z,1.70
2019-01-21T12:09:45.204Z,1.70
2019-01-21T12:11:36.839Z,1.80
2019-01-21T12:13:00.203Z,1.70
2019-01-21T12:14:51.367Z,1.70
2019-01-21T12:16:43.387Z,1.70
2019-01-21T12:18:31.636Z,1.70
2019-01-21T12:20:22.639Z,1.70
2019-01-21T12:22:14.227Z,1.80
2019-01-21T12:23:42.803Z,1.80
2019-01-21T12:25:12.682Z,1.80
2019-01-21T12:26:52.455Z,1.80
2019-01-21T12:28:52.823Z,1.80
2019-01-21T12:30:49.836Z,1.90
2019-01-21T12:32:47.039Z,1.90
2019-01-21T12:34:24.793Z,1.90
2019-01-21T12:36:08.991Z,2.00
2019-01-21T12:37:25.687Z,2.00
2019-01-21T12:39:08.579Z,2.00
2019-01-21T12:40:46.487Z,2.00
2019-01-21T12:42:11.389Z,2.00
2019-01-21T12:43:42.708Z,2.00
2019-01-21T12:45:00.822Z,2.10
2019-01-21T12:46:50.794Z,2.10
2019-01-21T12:48:13.291Z,2.10
2019-01-21T12:49:49.124Z,2.10
2019-01-21T12:51:18.186Z,2.10
2019-01-21T12:52:39.958Z,2.10
2019-01-21T12:54:02.938Z,2.10
2019-01-21T12:55:41.925Z,2.10
2019-01-21T12:57:32.755Z,2.20
2019-01-21T12:58:58.968Z,2.20
2019-01-21T13:00:56.390Z,2.10
2019-01-21T13:02:28.295Z,2.20
2019-01-21T13:03:59.300Z,2.20
2019-01-21T13:05:31.412Z,2.20
2019-01-21T13:07:02.966Z,2.20
2019-01-21T13:08:31.655Z,2.20
2019-01-21T13:10:19.507Z,2.20
2019-01-21T13:12:09.683Z,2.30
2019-01-21T13:13:47.399Z,2.30
2019-01-21T13:15:23.096Z,2.30
2019-01-21T13:16:58.000Z,2.30
2019-01-21T13:18:46.081Z,2.30
2019-01-21T13:20:15.644Z,2.40
2019-01-21T13:22:14.887Z,2.40
2019-01-21T13:23:45.671Z,2.40
2019-01-21T13:25:27.338Z,2.40
2019-01-21T13:27:06.886Z,2.50
2019-01-21T13:28:44.860Z,2.50
2019-01-21T13:30:27.303Z,2.50
2019-01-21T13:32:21.591Z,2.50
2019-01-21T13:33:52.043Z,2.50
2019-01-21T13:35:43.412Z,2.50
2019-01-21T13:37:39.778Z,2.50
2019-01-21T13:39:14.671Z,2.60
2019-01-21T13:40:36.438Z,2.60
2019-01-21T13:42:17.399Z,2.60
2019-01-21T13:44:03.251Z,2.60
2019-01-21T13:45:47.270Z,2.60
2019-01-21T13:47:47.481Z,2.70
2019-01-21T13:49:33.107Z,2.70
2019-01-21T13:50:53.972Z,2.70
2019-01-21T13:52:32.693Z,2.70
2019-01-21T13:54:13.818Z,2.70
2019-01-21T13:55:56.271Z,2.80
2019-01-21T13:57:41.387Z,2.80
2019-01-21T13:59:19.747Z,2.80
2019-01-21T14:00:50.366Z,2.80
2019-01-21T14:02:11.626Z,2.90
2019-01-21T14:03:55.907Z,2.90
2019-01-21T14:05:52.965Z,2.90
2019-01-21T14:08:02.114Z,2.90
2019-01-21T14:09:53.480Z,3.00
2019-01-21T14:11:26.667Z,3.00
2019-01-21T14:13:02.267Z,3.10
2019-01-21T14:14:40.175Z,3.10
2019-01-21T14:16:21.188Z,3.10
2019-01-21T14:18:10.812Z,3.20
2019-01-21T14:19:36.838Z,3.20
2019-01-21T14:21:14.292Z,3.20
2019-01-21T14:22:49.711Z,3.20
2019-01-21T14:24:18.923Z,3.30
2019-01-21T14:26:13.082Z,3.30
2019-01-21T14:27:46.770Z,3.30
2019-01-21T14:29:24.738Z,3.30
2019-01-21T14:31:10.140Z,3.30
2019-01-21T14:33:13.789Z,3.40
2019-01-21T14:35:04.311Z,3.40
2019-01-21T14:36:41.818Z,3.40
2019-01-21T14:38:34.795Z,3.40
2019-01-21T14:39:52.071Z,3.50
2019-01-21T14:41:12.487Z,3.50
2019-01-21T14:42:42.954Z,3.50
2019-01-21T14:44:40.408Z,3.50
2019-01-21T14:46:34.053Z,3.50
2019-01-21T14:48:23.695Z,3.50
2019-01-21T14:49:48.920Z,3.50
2019-01-21T14:51:29.635Z,3.50
2019-01-21T14:53:07.563Z,3.50
2019-01-21T14:54:36.383Z,3.60
2019-01-21T14:56:10.000Z,3.60
2019-01-21T14:57:44.455Z,3.60
2019-01-21T14:59:01.631Z,3.60
2019-01-21T15:00:42.010Z,3.60
2019-01-21T15:02:11.160Z,3.60
2019-01-21T15:03:55.418Z,3.60
2019-01-21T15:05:22.323Z,3.60
2019-01-21T15:07:02.463Z,3.60
2019-01-21T15:08:35.784Z,3.60
2019-01-21T15:10:23.015Z,3.60
2019-01-21T15:12:18.965Z,3.60
2019-01-21T15:13:59.378Z,3.60
2019-01-21T15:15:31.511Z,3.50
2019-01-21T15:17:34.731Z,3.50
2019-01-21T15:18:53.727Z,3.50
2019-01-21T15:20:14.661Z,3.40
2019-01-21T15:22:01.882Z,3.40
2019-01-21T15:23:43.165Z,3.40
2019-01-21T15:25:19.599Z,3.30
2019-01-21T15:26:38.547Z,3.30
2019-01-21T15:28:09.067Z,3.30
2019-01-21T15:29:47.557Z,3.20
2019-01-21T15:31:23.342Z,3.20
2019-01-21T15:33:07.182Z,3.20
2019-01-21T15:34:55.258Z,3.20
2019-01-21T15:36:40.475Z,3.10
2019-01-21T15:38:22.262Z,3.10
2019-01-21T15:39:44.838Z,3.10
2019-01-21T15:41:42.637Z,3.10
2019-01-21T15:43:18.712Z,3.10
2019-01-21T15:45:06.101Z,3.00
2019-01-21T15:46:38.962Z,3.00
2019-01-21T15:48:09.597Z,3.00
2019-01-21T15:49:52.128Z,3.00
2019-01-21T15:51:46.399Z,3.00
2019-01-21T15:53:09.659Z,2.90
2019-01-21T15:54:25.897Z,2.90
2019-01-21T15:56:00.938Z,2.90
2019-01-21T15:57:41.783Z,2.90
2019-01-21T15:59:51.259Z,2.90
2019-01-21T16:01:28.940Z,2.90
2019-01-21T16:02:58.695Z,2.80
2019-01-21T16:04:35.596Z,2.80
2019-01-21T16:06:02.820Z,2.80
2019-01-21T16:07:22.997Z,2.70
2019-01-21T16:09:14.404Z,2.70
2019-01-21T16:11:05.615Z,2.70
2019-01-21T16:12:39.522Z,2.70
2019-01-21T16:14:27.778Z,2.60
2019-01-21T16:16:37.222Z,2.60
2019-01-21T16:18:08.132Z,2.60
2019-01-21T16:19:33.039Z,2.60
2019-01-21T16:21:31.088Z,2.60
2019-01-21T16:23:23.931Z,2.50
2019-01-21T16:24:52.762Z,2.50
2019-01-21T16:26:21.395Z,2.50
2019-01-21T16:27:36.217Z,2.50
2019-01-21T16:29:12.059Z,2.50
2019-01-21T16:30:49.619Z,2.40
2019-01-21T16:32:06.278Z,2.40
2019-01-21T16:33:33.338Z,2.30
2019-01-21T16:34:48.820Z,2.30
2019-01-21T16:36:12.964Z,2.30
2019-01-21T16:38:08.622Z,2.30
2019-01-21T16:39:46.382Z,2.30
2019-01-21T16:41:27.213Z,2.20
2019-01-21T16:42:29.837Z,2.30
2019-01-21T16:43:33.908Z,2.30
2019-01-21T16:44:37.982Z,2.20
2019-01-21T16:45:42.081Z,2.20
2019-01-21T16:46:46.207Z,2.20
2019-01-21T16:47:50.262Z,2.20
2019-01-21T16:48:54.344Z,2.20
2019-01-21T16:49:58.428Z,2.20
2019-01-21T16:51:02.489Z,2.10
2019-01-21T16:52:06.546Z,2.20
2019-01-21T16:53:10.831Z,2.10
2019-01-21T16:54:15.023Z,2.10
2019-01-21T16:55:19.104Z,2.10
2019-01-21T16:56:23.168Z,2.10
2019-01-21T16:57:27.222Z,2.10
2019-01-21T16:58:31.283Z,2.10
2019-01-21T16:59:35.351Z,2.10
2019-01-21T17:00:39.448Z,2.10
2019-01-21T17:01:43.507Z,2.10
2019-01-21T17:02:47.583Z,2.10
2019-01-21T17:03:51.658Z,2.10
2019-01-21T17:04:55.726Z,2.10
2019-01-21T17:05:59.795Z,2.10
2019-01-21T17:07:03.911Z,2.10
2019-01-21T17:08:08.040Z,2.00
2019-01-21T17:09:12.273Z,2.00
2019-01-21T17:10:16.331Z,2.00
2019-01-21T17:11:20.447Z,2.00
2019-01-21T17:12:24.581Z,2.00
2019-01-21T17:13:28.635Z,2.00
2019-01-21T17:14:32.702Z,2.00
2019-01-21T17:15:36.764Z,2.00
2019-01-21T17:16:40.883Z,1.90
2019-01-21T17:17:44.952Z,1.90
2019-01-21T17:18:49.012Z,1.90
2019-01-21T17:19:53.070Z,1.90
2019-01-21T17:20:57.119Z,1.90
2019-01-21T17:22:01.208Z,1.90
2019-01-21T17:23:05.304Z,1.90
2019-01-21T17:24:09.475Z,1.90
2019-01-21T17:25:13.627Z,1.90
2019-01-21T17:26:17.695Z,1.90
2019-01-21T17:27:21.847Z,1.80
2019-01-21T17:28:25.963Z,1.80
2019-01-21T17:29:30.070Z,1.80
2019-01-21T17:30:34.131Z,1.80
2019-01-21T17:31:38.196Z,1.80
2019-01-21T17:32:42.359Z,1.80
2019-01-21T17:33:46.443Z,1.80
2019-01-21T17:34:50.518Z,1.80
2019-01-21T17:35:54.578Z,1.80
2019-01-21T17:36:58.643Z,1.80
2019-01-21T17:38:02.719Z,1.80
2019-01-21T17:39:08.649Z,1.80
2019-01-21T17:40:14.266Z,1.80
2019-01-21T17:41:18.326Z,1.80
2019-01-21T17:42:22.378Z,1.80
2019-01-21T17:43:26.468Z,1.80
2019-01-21T17:44:30.527Z,1.70
2019-01-21T17:45:34.585Z,1.70
2019-01-21T17:46:38.646Z,1.70
2019-01-21T17:47:42.701Z,1.70
2019-01-21T17:48:46.815Z,1.70
2019-01-21T17:49:50.888Z,1.70
2019-01-21T17:50:54.946Z,1.70
2019-01-21T17:51:59.008Z,1.70
2019-01-21T17:53:03.072Z,1.70
2019-01-21T17:54:07.160Z,1.70
2019-01-21T17:55:11.690Z,1.70
2019-01-21T17:56:15.939Z,1.70
2019-01-21T17:57:19.999Z,1.70
2019-01-21T17:58:24.064Z,1.70
2019-01-21T17:59:28.135Z,1.70
2019-01-21T18:00:32.202Z,1.70
2019-01-21T18:01:39.387Z,1.70
2019-01-21T18:02:42.107Z,1.60
2019-01-21T18:03:46.174Z,1.60
2019-01-21T18:04:50.263Z,1.60
2019-01-21T18:05:54.323Z,1.60
2019-01-21T18:06:58.388Z,1.60
2019-01-21T18:08:02.450Z,1.60
2019-01-21T18:09:09.104Z,1.60
2019-01-21T18:10:14.471Z,1.60
2019-01-21T18:11:18.531Z,1.70
2019-01-21T18:12:22.587Z,1.70
2019-01-21T18:13:26.660Z,1.60
2019-01-21T18:14:30.757Z,1.60
2019-01-21T18:15:34.852Z,1.60
2019-01-21T18:16:38.921Z,1.60
2019-01-21T18:17:43.026Z,1.60
2019-01-21T18:18:47.087Z,1.60
2019-01-21T18:19:51.170Z,1.60
2019-01-21T18:20:55.239Z,1.60
2019-01-21T18:21:59.299Z,1.60
2019-01-21T18:23:03.363Z,1.60
2019-01-21T18:24:07.422Z,1.60
2019-01-21T18:25:12.085Z,1.60
2019-01-21T18:26:16.199Z,1.60
2019-01-21T18:27:20.299Z,1.60
2019-01-21T18:28:24.367Z,1.60
2019-01-21T18:29:28.440Z,1.50
2019-01-21T18:30:32.523Z,1.50
2019-01-21T18:31:36.588Z,1.50
2019-01-21T18:32:40.647Z,1.50
2019-01-21T18:33:44.724Z,1.50
2019-01-21T18:34:48.846Z,1.50
2019-01-21T18:35:52.939Z,1.50
2019-01-21T18:36:56.992Z,1.50
2019-01-21T18:38:01.111Z,1.50
2019-01-21T18:39:07.362Z,1.50
2019-01-21T18:40:16.410Z,1.50
2019-01-21T18:41:20.491Z,1.50
2019-01-21T18:42:24.551Z,1.50
2019-01-21T18:43:28.607Z,1.50
2019-01-21T18:44:32.718Z,1.50
2019-01-21T18:45:36.851Z,1.50
2019-01-21T18:46:40.944Z,1.50
2019-01-21T18:47:45.076Z,1.50
2019-01-21T18:48:49.127Z,1.50
2019-01-21T18:49:53.199Z,1.50
2019-01-21T18:50:57.335Z,1.50
2019-01-21T18:52:01.421Z,1.50
2019-01-21T18:53:05.522Z,1.50
2019-01-21T18:54:09.595Z,1.50
2019-01-21T18:55:13.744Z,1.50
2019-01-21T18:56:17.842Z,1.50
2019-01-21T18:57:21.928Z,1.50
2019-01-21T18:58:25.981Z,1.50
2019-01-21T18:59:30.051Z,1.50
2019-01-21T19:00:34.115Z,1.50
2019-01-21T19:01:38.172Z,1.50
2019-01-21T19:02:43.358Z,1.50
2019-01-21T19:03:47.595Z,1.60
2019-01-21T19:04:51.654Z,1.60
2019-01-21T19:05:55.723Z,1.60